Khon Kaen, Thailand

2:57 PM +07 on April 23, 2017 (GMT +0700)
Khon Kaen | | Change Station

Elev 541 ft 16.43 °N, 102.83 °E | Updated 57 minutes ago

Partly Cloudy
Partly Cloudy
100 °F
Feels Like 109 °F
N
6
Wind Variable Wind from Variable

Today
High -- | Low -- °F
--% Chance of Precip.
Yesterday
High -- | Low -- °F
Precip. -- in
Pressure 29.74 in
Visibility 5.6 miles
Clouds Few 3000 ft
Heat Index 109 °F
Dew Point 72 °F
Humidity 39%
Rainfall 0.00 in
Snow Depth Not available.
5:48 AM 6:25 PM
Waning Crescent, 13% visible
METAR VTUK 230700Z VRB05KT 9000 FEW030 38/22 Q1007 NOSIG
Pressure 29.74 in
Visibility 5.6 miles
Clouds Few 3000 ft
Heat Index 109 °F
Dew Point 72 °F
Humidity 39%
Rainfall 0.00 in
Snow Depth Not available.
5:48 AM 6:25 PM
Waning Crescent, 13% visible
METAR VTUK 230700Z VRB05KT 9000 FEW030 38/22 Q1007 NOSIG

Get Severe Weather Alerts

Thanks for signing up!

Be on the lookout for a verification email in your inbox.

You'll start receiving the daily forecast at 8 AM.

×

10-Day Weather Forecast

No radar image for this location.
×

Almanac

Astronomy

Apr. 23, 2017 Rise Set
Actual Time
Civil Twilight
Nautical Twilight
Astronomical Twilight
Moon
Length of Visible Light
Length of Day
Tomorrow will be .
, % of the Moon is Illuminated

Today's Extremes

Country Highs Country Lows

Community

WunderPhotos

WunderBlog® & News

Nearby

Air Quality

  Air Quality AQ Index Pollutant
Not available.

Snow Depth

Station Depth Elevation

Earthquake Activity

City Distance Mag. Time & Date
Minimum magnitude displayed is 2.5.

Coastal Water Temperatures

Place Temperature

Stations

Nearby Weather Stations

Station Location Temp. Windchill Dew Point Humidity Wind Precip. Elev Updated Type